Time;durP1;ratioP1;P1;durP2;ratioP2;P2;SDS_P1;SDS_P2;PMS_P1;PMS_P2;Temp;Humidity;BMP_temperature;BMP_pressure;BME280_temperature;BME280_humidity;BME280_pressure;Samples;Min_cycle;Max_cycle;Signal;HPM_P1;HPM_P2
2023/12/01 00:02:24;;;;;;;;;;;15.80;51.30;;;;;;5004768;28;42995;-83
2023/12/01 00:04:50;;;;;;;;;;;15.90;51.40;;;;;;5006132;28;42855;-84
2023/12/01 00:07:16;;;;;;;;;;;16.00;51.50;;;;;;5005584;28;42820;-84
2023/12/01 00:09:41;;;;;;;;;;;15.90;52.00;;;;;;5005529;28;43384;-84
2023/12/01 00:12:07;;;;;;;;;;;16.00;51.50;;;;;;5005723;28;43063;-82
2023/12/01 00:14:33;;;;;;;;;;;15.90;51.30;;;;;;5005716;28;42838;-84
2023/12/01 00:16:59;;;;;;;;;;;16.20;51.60;;;;;;5005794;28;43174;-81
2023/12/01 00:19:24;;;;;;;;;;;16.20;51.60;;;;;;5005716;28;43462;-84
2023/12/01 00:21:50;;;;;;;;;;;15.90;51.60;;;;;;5005592;28;42929;-83
2023/12/01 00:24:15;;;;;;;;;;;16.10;51.60;;;;;;5005370;28;42925;-84
2023/12/01 00:26:41;;;;;;;;;;;15.90;51.90;;;;;;5005384;28;43035;-80
2023/12/01 00:29:06;;;;;;;;;;;15.70;51.50;;;;;;5005613;28;42913;-81
2023/12/01 00:31:32;;;;;;;;;;;16.00;51.70;;;;;;5005610;28;42877;-82
2023/12/01 00:33:58;;;;;;;;;;;15.80;51.50;;;;;;5005001;28;43478;-80
2023/12/01 00:36:24;;;;;;;;;;;16.00;51.70;;;;;;5004736;28;42929;-80
2023/12/01 00:38:49;;;;;;;;;;;16.00;51.60;;;;;;4986770;28;44896;-81
2023/12/01 00:41:15;;;;;;;;;;;15.90;52.20;;;;;;4987311;28;43326;-84
2023/12/01 00:43:40;;;;;;;;;;;16.00;51.70;;;;;;5004464;28;43551;-80
2023/12/01 00:46:06;;;;;;;;;;;16.00;51.70;;;;;;5005186;28;42860;-82
2023/12/01 00:48:31;;;;;;;;;;;16.00;51.90;;;;;;5004623;28;43479;-84
2023/12/01 00:50:57;;;;;;;;;;;16.00;52.20;;;;;;5004233;28;43001;-84
2023/12/01 00:53:22;;;;;;;;;;;16.00;51.80;;;;;;5004749;28;43490;-82
2023/12/01 00:55:48;;;;;;;;;;;15.80;51.60;;;;;;5004341;28;43020;-81
2023/12/01 00:58:13;;;;;;;;;;;16.00;51.70;;;;;;4990969;28;43046;-83
2023/12/01 01:00:40;;;;;;;;;;;16.10;52.30;;;;;;5003617;28;43170;-84
2023/12/01 01:03:06;;;;;;;;;;;16.10;52.10;;;;;;5004216;28;43556;-81
2023/12/01 01:05:31;;;;;;;;;;;16.00;52.00;;;;;;5004416;28;42873;-82
2023/12/01 01:07:57;;;;;;;;;;;16.20;52.50;;;;;;5004258;28;42865;-81
2023/12/01 01:10:23;;;;;;;;;;;15.70;51.80;;;;;;4986840;28;43025;-83
2023/12/01 01:12:48;;;;;;;;;;;16.00;52.00;;;;;;5004790;28;42925;-80
2023/12/01 01:15:14;;;;;;;;;;;16.00;51.90;;;;;;5004776;28;42994;-83
2023/12/01 01:17:40;;;;;;;;;;;16.00;51.80;;;;;;5004329;28;43485;-81
2023/12/01 01:20:05;;;;;;;;;;;16.00;51.80;;;;;;5005468;28;42886;-81
2023/12/01 01:22:32;;;;;;;;;;;15.80;51.70;;;;;;5004905;28;42870;-80
2023/12/01 01:24:58;;;;;;;;;;;15.90;51.90;;;;;;5004189;28;42985;-80
2023/12/01 01:27:24;;;;;;;;;;;;;;;;;;5015984;28;44275;-80
2023/12/01 01:29:49;;;;;;;;;;;16.00;50.90;;;;;;5044822;28;43007;-83
2023/12/01 01:32:15;;;;;;;;;;;15.90;51.90;;;;;;5044143;28;43530;-81
2023/12/01 01:34:40;;;;;;;;;;;16.00;52.00;;;;;;5042691;28;42913;-80
2023/12/01 01:37:07;;;;;;;;;;;16.00;51.90;;;;;;5043664;28;43050;-83
2023/12/01 01:39:33;;;;;;;;;;;16.00;51.90;;;;;;5041883;28;43005;-83
2023/12/01 01:41:58;;;;;;;;;;;15.90;52.00;;;;;;5024757;28;43757;-81
2023/12/01 01:44:24;;;;;;;;;;;15.90;51.90;;;;;;5006717;28;42858;-80
2023/12/01 01:46:50;;;;;;;;;;;16.00;51.90;;;;;;5024973;28;42990;-82
2023/12/01 01:49:16;;;;;;;;;;;15.90;52.10;;;;;;5023959;28;42872;-83
2023/12/01 01:51:41;;;;;;;;;;;16.00;52.30;;;;;;5023750;28;42966;-84
2023/12/01 01:54:07;;;;;;;;;;;16.10;52.20;;;;;;5024428;28;43006;-82
2023/12/01 01:56:33;;;;;;;;;;;16.10;52.20;;;;;;5028958;28;43046;-83
2023/12/01 01:58:59;;;;;;;;;;;15.90;52.10;;;;;;5028061;28;43056;-84
2023/12/01 02:01:25;;;;;;;;;;;16.00;52.70;;;;;;5032872;28;42963;-85
2023/12/01 02:03:52;;;;;;;;;;;16.00;52.20;;;;;;5044144;28;42903;-83
2023/12/01 02:06:19;;;;;;;;;;;16.00;52.30;;;;;;5047376;28;42926;-84
2023/12/01 02:08:44;;;;;;;;;;;16.10;52.10;;;;;;5045445;28;42961;-84
2023/12/01 02:11:10;;;;;;;;;;;16.00;52.10;;;;;;5024262;28;43692;-85
2023/12/01 02:13:36;;;;;;;;;;;16.00;52.10;;;;;;5039484;28;43061;-83
2023/12/01 02:16:02;;;;;;;;;;;15.90;52.20;;;;;;5039922;28;43067;-84
2023/12/01 02:18:28;;;;;;;;;;;15.90;52.60;;;;;;5009851;28;43099;-84
2023/12/01 02:20:54;;;;;;;;;;;16.00;52.70;;;;;;5027927;28;42904;-84
2023/12/01 02:23:20;;;;;;;;;;;15.90;52.70;;;;;;5027544;28;42983;-81
2023/12/01 02:25:46;;;;;;;;;;;15.90;52.30;;;;;;5026648;28;43161;-81
2023/12/01 02:28:12;;;;;;;;;;;16.10;52.20;;;;;;5040658;28;43026;-84
2023/12/01 02:30:38;;;;;;;;;;;15.90;52.00;;;;;;5044161;28;43975;-84
2023/12/01 02:33:04;;;;;;;;;;;16.40;52.30;;;;;;5046257;28;42943;-84
2023/12/01 02:35:29;;;;;;;;;;;15.90;52.10;;;;;;5046774;28;43356;-83
2023/12/01 02:37:55;;;;;;;;;;;16.00;52.20;;;;;;5047550;28;42925;-82
2023/12/01 02:40:22;;;;;;;;;;;16.00;52.20;;;;;;5045971;28;43068;-82
2023/12/01 02:42:52;;;;;;;;;;;16.00;52.30;;;;;;5003825;28;43067;-83
2023/12/01 02:45:18;;;;;;;;;;;15.90;51.30;;;;;;5026829;28;42875;-83
2023/12/01 02:47:47;;;;;;;;;;;15.90;52.30;;;;;;5026377;28;42998;-85
2023/12/01 02:50:13;;;;;;;;;;;15.90;53.00;;;;;;5026585;28;43344;-80
2023/12/01 02:52:39;;;;;;;;;;;16.00;52.30;;;;;;5028476;28;42953;-81
2023/12/01 02:55:04;;;;;;;;;;;15.90;52.30;;;;;;5026730;28;42987;-82
2023/12/01 02:57:30;;;;;;;;;;;16.00;52.30;;;;;;5025420;28;44125;-80
2023/12/01 02:59:55;;;;;;;;;;;15.90;52.30;;;;;;5028055;28;43572;-82
2023/12/01 03:02:21;;;;;;;;;;;16.00;52.30;;;;;;5046166;28;42919;-84
2023/12/01 03:04:47;;;;;;;;;;;16.00;52.70;;;;;;5038535;28;42895;-83
2023/12/01 03:07:13;;;;;;;;;;;15.90;52.90;;;;;;5037600;28;42997;-84
2023/12/01 03:09:38;;;;;;;;;;;15.80;52.20;;;;;;5046502;28;43705;-83
2023/12/01 03:12:04;;;;;;;;;;;15.90;52.90;;;;;;5045956;28;43110;-82
2023/12/01 03:14:29;;;;;;;;;;;15.80;52.30;;;;;;5028890;28;43875;-81
2023/12/01 03:16:56;;;;;;;;;;;;;;;;;;5043423;28;42824;-84
2023/12/01 03:19:22;;;;;;;;;;;16.00;52.50;;;;;;5034944;28;43840;-81
2023/12/01 03:21:48;;;;;;;;;;;15.90;52.40;;;;;;5045734;28;43080;-82
2023/12/01 03:24:14;;;;;;;;;;;15.80;52.40;;;;;;5022023;28;42969;-82
2023/12/01 03:26:39;;;;;;;;;;;15.80;52.40;;;;;;5021999;28;43034;-84
2023/12/01 03:29:05;;;;;;;;;;;15.90;52.50;;;;;;5044012;28;43683;-83
2023/12/01 03:31:30;;;;;;;;;;;15.90;52.50;;;;;;5029009;28;42920;-80
2023/12/01 03:33:56;;;;;;;;;;;15.90;52.50;;;;;;5026608;28;42873;-84
2023/12/01 03:36:21;;;;;;;;;;;16.00;52.60;;;;;;5045084;28;42842;-79
2023/12/01 03:38:47;;;;;;;;;;;16.00;52.60;;;;;;5044551;28;43007;-82
2023/12/01 03:41:13;;;;;;;;;;;15.90;52.50;;;;;;5045078;28;42984;-80
2023/12/01 03:43:38;;;;;;;;;;;16.00;52.60;;;;;;5045076;28;43247;-80
2023/12/01 03:46:04;;;;;;;;;;;15.90;53.00;;;;;;5042513;28;43041;-80
2023/12/01 03:48:36;;;;;;;;;;;16.00;52.60;;;;;;5024846;28;43164;-81
2023/12/01 03:51:02;;;;;;;;;;;15.90;52.60;;;;;;5025281;28;42836;-81
2023/12/01 03:53:30;;;;;;;;;;;15.80;52.50;;;;;;5025051;28;43019;-83
2023/12/01 03:55:56;;;;;;;;;;;15.80;52.50;;;;;;5025390;28;42983;-83
2023/12/01 03:58:24;;;;;;;;;;;15.80;52.90;;;;;;5025173;28;42956;-81
2023/12/01 04:00:52;;;;;;;;;;;15.80;52.50;;;;;;5025876;28;43132;-83
2023/12/01 04:03:18;;;;;;;;;;;15.80;52.50;;;;;;5006927;28;43802;-83
2023/12/01 04:05:44;;;;;;;;;;;15.80;52.60;;;;;;5024576;28;42940;-83
2023/12/01 04:08:09;;;;;;;;;;;15.80;52.60;;;;;;5024379;28;43595;-79
2023/12/01 04:10:35;;;;;;;;;;;15.80;53.00;;;;;;5024969;28;42879;-80
2023/12/01 04:13:07;;;;;;;;;;;16.00;52.70;;;;;;5024551;28;43690;-82
2023/12/01 04:15:33;;;;;;;;;;;15.90;52.70;;;;;;5031306;28;43007;-84
2023/12/01 04:18:06;;;;;;;;;;;15.90;53.10;;;;;;5026475;28;43080;-81
2023/12/01 04:20:36;;;;;;;;;;;15.90;52.60;;;;;;5023934;28;42932;-81
2023/12/01 04:23:02;;;;;;;;;;;15.80;52.60;;;;;;5011807;28;45499;-81
2023/12/01 04:25:28;;;;;;;;;;;15.90;53.10;;;;;;5044399;28;42845;-81
2023/12/01 04:27:55;;;;;;;;;;;15.80;52.60;;;;;;5044575;28;42856;-80
2023/12/01 04:30:22;;;;;;;;;;;15.80;52.50;;;;;;5044622;28;43015;-82
2023/12/01 04:32:59;;;;;;;;;;;15.80;52.60;;;;;;5039166;28;42966;-79
2023/12/01 04:35:32;;;;;;;;;;;15.90;53.10;;;;;;5025857;28;43216;-82
2023/12/01 04:37:58;;;;;;;;;;;15.80;52.60;;;;;;5032049;28;43666;-83
2023/12/01 04:40:24;;;;;;;;;;;15.80;53.10;;;;;;5044507;28;42966;-83
2023/12/01 04:42:50;;;;;;;;;;;15.80;53.20;;;;;;5024515;28;44134;-82
2023/12/01 04:45:17;;;;;;;;;;;16.00;52.70;;;;;;5023735;28;42984;-81
2023/12/01 04:47:43;;;;;;;;;;;15.80;53.10;;;;;;5043338;28;42987;-82
2023/12/01 04:50:12;;;;;;;;;;;15.90;52.70;;;;;;5013035;28;44080;-80
2023/12/01 04:52:55;;;;;;;;;;;16.10;53.30;;;;;;5004638;28;43827;-82
2023/12/01 04:55:25;;;;;;;;;;;15.80;52.90;;;;;;5022897;28;42864;-82
2023/12/01 04:57:51;;;;;;;;;;;15.90;52.90;;;;;;5044745;28;42856;-80
2023/12/01 05:00:21;;;;;;;;;;;15.90;52.90;;;;;;5044544;28;42932;-80
2023/12/01 05:02:49;;;;;;;;;;;16.00;52.90;;;;;;5025823;28;44720;-84
2023/12/01 05:05:15;;;;;;;;;;;15.90;53.00;;;;;;5043920;28;42935;-84
2023/12/01 05:07:41;;;;;;;;;;;15.90;53.00;;;;;;5032573;28;43490;-80
2023/12/01 05:10:14;;;;;;;;;;;15.90;52.90;;;;;;5024546;28;43246;-79
2023/12/01 05:12:41;;;;;;;;;;;15.70;52.60;;;;;;5007487;28;43754;-80
2023/12/01 05:15:15;;;;;;;;;;;16.00;53.00;;;;;;5023306;28;43080;-80
2023/12/01 05:18:07;;;;;;;;;;;15.80;52.80;;;;;;5019971;28;43133;-82
2023/12/01 05:20:33;;;;;;;;;;;15.60;52.80;;;;;;4999805;28;43007;-82
2023/12/01 05:23:05;;;;;;;;;;;15.90;52.90;;;;;;5002929;28;43481;-81
2023/12/01 05:25:34;;;;;;;;;;;15.80;53.00;;;;;;5004101;28;42931;-83
2023/12/01 05:28:00;;;;;;;;;;;15.90;52.90;;;;;;4999190;28;43007;-80
2023/12/01 05:30:27;;;;;;;;;;;15.90;53.00;;;;;;4999568;28;42887;-82
2023/12/01 05:32:53;;;;;;;;;;;15.90;52.70;;;;;;5025718;28;42880;-79
2023/12/01 05:35:19;;;;;;;;;;;15.70;52.90;;;;;;5026393;28;42985;-81
2023/12/01 05:37:47;;;;;;;;;;;15.80;52.60;;;;;;5027477;28;42869;-80
2023/12/01 05:40:16;;;;;;;;;;;15.70;52.40;;;;;;5026846;28;42941;-79
2023/12/01 05:42:43;;;;;;;;;;;15.80;52.30;;;;;;5006034;28;43017;-81
2023/12/01 05:45:11;;;;;;;;;;;15.90;52.40;;;;;;5003918;28;42881;-81
2023/12/01 05:47:46;;;;;;;;;;;15.80;52.90;;;;;;5000243;28;43045;-82
2023/12/01 05:50:16;;;;;;;;;;;15.90;52.90;;;;;;5002556;28;42898;-78
2023/12/01 05:52:42;;;;;;;;;;;15.70;51.70;;;;;;5006049;28;44464;-84
2023/12/01 05:55:14;;;;;;;;;;;15.90;52.60;;;;;;5005433;28;42866;-86
2023/12/01 05:57:43;;;;;;;;;;;15.90;53.70;;;;;;5003378;28;44423;-83
2023/12/01 06:00:15;;;;;;;;;;;15.90;54.30;;;;;;5000857;28;43113;-82
2023/12/01 06:02:42;;;;;;;;;;;15.90;53.50;;;;;;5000523;28;43013;-79
2023/12/01 06:05:08;;;;;;;;;;;15.90;53.70;;;;;;4996956;28;43348;-81
2023/12/01 06:07:34;;;;;;;;;;;15.80;53.50;;;;;;4995284;28;43172;-82
2023/12/01 06:10:00;;;;;;;;;;;15.80;53.90;;;;;;4997645;28;42970;-81
2023/12/01 06:12:25;;;;;;;;;;;15.90;53.70;;;;;;5004040;28;43038;-89
2023/12/01 06:14:51;;;;;;;;;;;16.00;53.70;;;;;;5006830;28;43127;-83
2023/12/01 06:17:17;;;;;;;;;;;15.90;54.20;;;;;;5006786;28;42952;-79
2023/12/01 06:19:42;;;;;;;;;;;15.80;53.80;;;;;;5005961;28;43028;-79
2023/12/01 06:22:08;;;;;;;;;;;15.90;53.70;;;;;;5007087;28;43766;-80
2023/12/01 06:24:33;;;;;;;;;;;15.80;53.40;;;;;;5007210;28;43629;-80
2023/12/01 06:27:03;;;;;;;;;;;15.70;52.70;;;;;;5010155;28;43885;-84
2023/12/01 06:29:32;;;;;;;;;;;15.90;52.90;;;;;;5049657;28;42893;-86
2023/12/01 06:31:58;;;;;;;;;;;15.70;53.10;;;;;;5042755;28;43081;-85
2023/12/01 06:34:23;;;;;;;;;;;15.70;53.10;;;;;;5024362;28;42904;-79
2023/12/01 06:36:49;;;;;;;;;;;15.60;52.50;;;;;;5035468;28;42999;-80
2023/12/01 06:39:14;;;;;;;;;;;15.70;52.60;;;;;;5045461;28;43258;-81
2023/12/01 06:41:41;;;;;;;;;;;15.70;52.30;;;;;;5044537;28;43465;-87
2023/12/01 06:44:07;;;;;;;;;;;15.60;52.10;;;;;;5044120;28;43055;-88
2023/12/01 06:46:32;;;;;;;;;;;15.70;52.60;;;;;;5044561;28;43549;-88
2023/12/01 06:48:58;;;;;;;;;;;15.70;52.20;;;;;;5045769;28;42912;-87
2023/12/01 06:51:24;;;;;;;;;;;15.80;52.30;;;;;;5028604;28;42868;-81
2023/12/01 06:53:50;;;;;;;;;;;15.70;52.20;;;;;;5047709;28;42841;-80
2023/12/01 06:56:15;;;;;;;;;;;15.70;52.10;;;;;;5046463;28;42948;-83
2023/12/01 06:58:40;;;;;;;;;;;15.70;52.30;;;;;;5046750;28;43128;-86
2023/12/01 07:01:06;;;;;;;;;;;15.60;52.20;;;;;;5046961;28;43046;-82
2023/12/01 07:03:32;;;;;;;;;;;15.70;52.20;;;;;;5046564;28;42951;-88
2023/12/01 07:05:57;;;;;;;;;;;15.80;52.20;;;;;;5046364;28;43487;-87
2023/12/01 07:08:23;;;;;;;;;;;15.70;52.20;;;;;;5046438;28;43156;-87
2023/12/01 07:10:48;;;;;;;;;;;15.70;52.10;;;;;;5046179;28;44881;-87
2023/12/01 07:13:14;;;;;;;;;;;15.70;52.20;;;;;;5028879;28;43031;-86
2023/12/01 07:15:39;;;;;;;;;;;15.70;52.20;;;;;;5028487;28;42837;-86
2023/12/01 07:18:05;;;;;;;;;;;15.80;52.20;;;;;;5045988;28;43173;-87
2023/12/01 07:20:33;;;;;;;;;;;15.60;52.10;;;;;;5046040;28;43510;-88
2023/12/01 07:22:59;;;;;;;;;;;15.90;52.20;;;;;;5046353;28;42800;-87
2023/12/01 07:25:25;;;;;;;;;;;15.70;52.00;;;;;;5045888;28;43811;-88
2023/12/01 07:27:54;;;;;;;;;;;15.80;52.10;;;;;;5045737;28;43075;-79
2023/12/01 07:30:20;;;;;;;;;;;15.80;52.20;;;;;;5046048;28;43219;-86
2023/12/01 07:32:46;;;;;;;;;;;15.70;52.50;;;;;;5046537;28;42817;-86
2023/12/01 07:35:12;;;;;;;;;;;15.60;52.10;;;;;;5046249;28;42822;-84
2023/12/01 07:37:42;;;;;;;;;;;15.80;52.20;;;;;;5045411;28;43016;-87
2023/12/01 07:40:11;;;;;;;;;;;15.60;52.00;;;;;;5045848;28;42950;-87
2023/12/01 07:42:37;;;;;;;;;;;15.80;52.20;;;;;;5046229;28;43018;-81
2023/12/01 07:45:03;;;;;;;;;;;15.80;52.20;;;;;;5046016;28;42875;-87
2023/12/01 07:47:29;;;;;;;;;;;15.60;52.10;;;;;;5045479;28;42789;-88
2023/12/01 07:49:54;;;;;;;;;;;15.70;52.20;;;;;;5046187;28;42937;-88
2023/12/01 07:52:20;;;;;;;;;;;15.70;52.20;;;;;;5045508;28;43039;-88
2023/12/01 07:54:45;;;;;;;;;;;15.60;52.80;;;;;;5027581;28;45481;-87
2023/12/01 07:57:11;;;;;;;;;;;15.70;52.20;;;;;;5046227;28;42857;-88
2023/12/01 07:59:36;;;;;;;;;;;15.80;52.30;;;;;;5045768;28;43418;-88
2023/12/01 08:02:02;;;;;;;;;;;15.80;52.30;;;;;;5045117;28;42982;-82
2023/12/01 08:04:28;;;;;;;;;;;15.80;52.30;;;;;;5045472;28;43430;-85
2023/12/01 08:06:55;;;;;;;;;;;15.60;52.20;;;;;;5046010;28;43153;-86
2023/12/01 08:09:22;;;;;;;;;;;15.70;52.20;;;;;;5045661;28;42971;-86
2023/12/01 08:11:47;;;;;;;;;;;15.70;52.20;;;;;;5045140;28;42907;-87
2023/12/01 08:14:13;;;;;;;;;;;15.60;52.20;;;;;;5045732;28;43039;-81
2023/12/01 08:16:39;;;;;;;;;;;15.80;52.30;;;;;;5045745;28;42888;-87
2023/12/01 08:19:05;;;;;;;;;;;16.90;52.90;;;;;;5045795;28;42743;-83
2023/12/01 08:21:31;;;;;;;;;;;15.60;52.60;;;;;;5045842;28;42912;-83
2023/12/01 08:23:57;;;;;;;;;;;15.50;52.20;;;;;;5045641;28;42927;-82
2023/12/01 08:26:22;;;;;;;;;;;15.70;52.30;;;;;;5045529;28;42842;-86
2023/12/01 08:28:48;;;;;;;;;;;15.60;52.80;;;;;;5045087;28;42999;-83
2023/12/01 08:31:13;;;;;;;;;;;15.60;52.20;;;;;;5045068;28;42875;-79
2023/12/01 08:33:39;;;;;;;;;;;15.70;52.40;;;;;;5045932;28;44048;-82
2023/12/01 08:36:05;;;;;;;;;;;15.60;52.30;;;;;;5045188;28;42879;-83
2023/12/01 08:38:30;;;;;;;;;;;15.70;52.30;;;;;;5045998;28;43411;-82
2023/12/01 08:40:56;;;;;;;;;;;15.70;52.40;;;;;;5048191;28;42993;-86
2023/12/01 08:43:21;;;;;;;;;;;15.60;52.30;;;;;;5050327;28;42787;-88
2023/12/01 08:45:47;;;;;;;;;;;15.60;52.40;;;;;;5045501;28;42928;-80
2023/12/01 08:48:12;;;;;;;;;;;15.70;52.40;;;;;;5045427;28;42947;-87
2023/12/01 08:50:38;;;;;;;;;;;15.50;52.40;;;;;;5045414;28;42932;-84
2023/12/01 08:53:03;;;;;;;;;;;15.60;52.90;;;;;;5044709;28;43434;-89
2023/12/01 08:55:29;;;;;;;;;;;15.60;52.40;;;;;;5045248;28;42950;-88
2023/12/01 08:57:54;;;;;;;;;;;15.60;53.00;;;;;;5045156;28;43629;-87
2023/12/01 09:00:20;;;;;;;;;;;15.60;52.90;;;;;;5045147;28;42816;-80
2023/12/01 09:02:47;;;;;;;;;;;15.70;52.50;;;;;;5045521;28;42959;-89
2023/12/01 09:05:13;;;;;;;;;;;15.70;52.50;;;;;;5049569;28;42992;-88
2023/12/01 09:07:39;;;;;;;;;;;15.50;52.40;;;;;;5052128;28;43449;-88
2023/12/01 09:10:05;;;;;;;;;;;15.80;52.50;;;;;;5033242;28;42932;-88
2023/12/01 09:12:31;;;;;;;;;;;15.70;52.50;;;;;;5051364;28;43913;-87
2023/12/01 09:14:56;;;;;;;;;;;15.60;52.40;;;;;;5051651;28;42994;-87
2023/12/01 09:17:22;;;;;;;;;;;15.60;52.40;;;;;;5050974;28;43584;-84
2023/12/01 09:19:47;;;;;;;;;;;15.70;52.50;;;;;;5051542;28;43073;-87
2023/12/01 09:22:13;;;;;;;;;;;15.50;52.40;;;;;;5051253;28;43056;-85
2023/12/01 09:24:38;;;;;;;;;;;15.60;52.40;;;;;;5032944;28;42937;-80
2023/12/01 09:27:04;;;;;;;;;;;15.70;52.60;;;;;;5049836;28;43705;-87
2023/12/01 09:29:30;;;;;;;;;;;15.80;52.70;;;;;;5051040;28;42772;-89
2023/12/01 09:31:55;;;;;;;;;;;15.60;52.50;;;;;;5032597;28;45472;-83
2023/12/01 09:34:21;;;;;;;;;;;15.60;52.50;;;;;;5051317;28;42899;-87
2023/12/01 09:36:46;;;;;;;;;;;15.40;52.50;;;;;;5050597;28;42832;-88
2023/12/01 09:39:12;;;;;;;;;;;15.50;52.50;;;;;;5051222;28;42902;-87
2023/12/01 09:41:38;;;;;;;;;;;15.60;52.60;;;;;;5051161;28;42990;-88
2023/12/01 09:44:05;;;;;;;;;;;15.60;52.60;;;;;;5051487;28;42879;-81
2023/12/01 09:46:34;;;;;;;;;;;15.60;52.50;;;;;;5050714;28;42919;-85
2023/12/01 09:49:04;;;;;;;;;;;15.70;52.60;;;;;;5032393;28;43051;-87
2023/12/01 09:51:31;;;;;;;;;;;15.60;52.60;;;;;;5050858;28;43345;-88
2023/12/01 09:53:57;;;;;;;;;;;15.50;52.50;;;;;;5050692;28;43256;-86
2023/12/01 09:56:23;;;;;;;;;;;15.60;52.70;;;;;;5051120;28;43012;-85
2023/12/01 09:58:49;;;;;;;;;;;15.60;52.60;;;;;;5051228;28;42769;-87
2023/12/01 10:01:15;;;;;;;;;;;15.50;52.60;;;;;;5050361;28;43046;-87
2023/12/01 10:03:40;;;;;;;;;;;15.50;52.70;;;;;;5050616;28;42856;-87
2023/12/01 10:06:07;;;;;;;;;;;15.60;52.70;;;;;;5050831;28;43431;-87
2023/12/01 10:08:34;;;;;;;;;;;15.60;52.70;;;;;;5051184;28;43268;-87
2023/12/01 10:10:59;;;;;;;;;;;15.70;52.80;;;;;;5050648;28;43098;-80
2023/12/01 10:13:25;;;;;;;;;;;15.70;52.90;;;;;;5050497;28;42935;-85
2023/12/01 10:15:51;;;;;;;;;;;15.70;52.90;;;;;;5031466;28;44100;-87
2023/12/01 10:18:17;;;;;;;;;;;15.40;52.90;;;;;;5047667;28;42919;-87
2023/12/01 10:20:59;;;;;;;;;;;15.80;53.10;;;;;;5047042;28;43180;-86
2023/12/01 10:23:25;;;;;;;;;;;15.60;53.00;;;;;;5047342;28;42997;-88
2023/12/01 10:25:51;;;;;;;;;;;15.60;53.00;;;;;;5047476;28;42973;-86
2023/12/01 10:28:17;;;;;;;;;;;15.60;53.00;;;;;;5047083;28;42920;-82
2023/12/01 10:30:53;;;;;;;;;;;15.50;53.00;;;;;;5046927;28;42899;-83
2023/12/01 10:33:19;;;;;;;;;;;15.40;52.90;;;;;;5028815;28;42974;-85
2023/12/01 10:36:02;;;;;;;;;;;15.60;52.20;;;;;;5028667;28;43617;-83
2023/12/01 10:38:29;;;;;;;;;;;15.60;53.10;;;;;;5046707;28;42871;-87
2023/12/01 10:40:55;;;;;;;;;;;15.70;53.00;;;;;;5047243;28;44368;-86
2023/12/01 10:43:21;;;;;;;;;;;15.50;53.00;;;;;;5046978;28;42876;-81
2023/12/01 10:45:50;;;;;;;;;;;15.50;53.00;;;;;;5047228;28;43411;-81
2023/12/01 10:48:19;;;;;;;;;;;15.40;53.30;;;;;;5047152;28;43011;-82
2023/12/01 10:50:48;;;;;;;;;;;15.30;52.90;;;;;;5039233;28;44835;-84
2023/12/01 10:53:15;;;;;;;;;;;15.50;53.20;;;;;;5048150;28;43498;-88
2023/12/01 10:55:49;;;;;;;;;;;15.50;53.50;;;;;;5047662;28;42813;-85
2023/12/01 10:58:20;;;;;;;;;;;15.60;53.10;;;;;;5046805;28;43133;-88
2023/12/01 11:00:47;;;;;;;;;;;15.50;53.10;;;;;;5046695;28;43395;-87
2023/12/01 11:03:13;;;;;;;;;;;15.60;53.20;;;;;;5046727;28;42875;-88
2023/12/01 11:05:41;;;;;;;;;;;15.60;53.20;;;;;;5047131;28;43399;-81
2023/12/01 11:08:22;;;;;;;;;;;15.60;53.20;;;;;;5047059;28;42960;-85
2023/12/01 11:11:08;;;;;;;;;;;15.70;53.10;;;;;;5046906;28;42792;-86
2023/12/01 11:13:33;;;;;;;;;;;15.40;53.10;;;;;;5045765;28;43010;-86
2023/12/01 11:15:59;;;;;;;;;;;15.50;53.30;;;;;;5046445;28;43518;-87
2023/12/01 11:18:25;;;;;;;;;;;15.50;53.30;;;;;;5046800;28;42970;-87
2023/12/01 11:20:52;;;;;;;;;;;10.70;50.90;;;;;;5046595;28;43501;-81
2023/12/01 11:23:21;;;;;;;;;;;15.40;53.30;;;;;;5028327;28;42935;-83
2023/12/01 11:25:48;;;;;;;;;;;15.50;53.30;;;;;;5046231;28;42867;-87
2023/12/01 11:28:20;;;;;;;;;;;15.60;53.40;;;;;;5045001;28;42985;-86
2023/12/01 11:31:07;;;;;;;;;;;15.50;52.30;;;;;;5046358;28;42840;-81
2023/12/01 11:33:53;;;;;;;;;;;15.50;53.30;;;;;;5028035;28;42842;-83
2023/12/01 11:36:25;;;;;;;;;;;15.50;53.40;;;;;;5031619;28;43452;-87
2023/12/01 11:39:29;;;;;;;;;;;15.40;52.30;;;;;;5046096;28;43011;-83
2023/12/01 11:41:55;;;;;;;;;;;15.60;52.40;;;;;;5004644;28;42927;-87
2023/12/01 11:44:25;;;;;;;;;;;15.60;53.40;;;;;;5046061;28;42935;-87
2023/12/01 11:46:55;;;;;;;;;;;15.80;53.60;;;;;;5045464;28;43343;-87
2023/12/01 11:49:39;;;;;;;;;;;15.40;53.90;;;;;;5045585;28;42934;-86
2023/12/01 11:52:06;;;;;;;;;;;15.50;53.50;;;;;;5045880;28;43662;-85
2023/12/01 11:54:36;;;;;;;;;;;15.50;53.60;;;;;;5027963;28;42774;-82
2023/12/01 11:57:05;;;;;;;;;;;15.50;53.50;;;;;;5046396;28;42900;-87
2023/12/01 11:59:30;;;;;;;;;;;15.60;53.60;;;;;;5045995;28;42871;-80
2023/12/01 12:01:56;;;;;;;;;;;15.40;53.50;;;;;;5045470;28;42959;-85
2023/12/01 12:04:22;;;;;;;;;;;15.30;53.40;;;;;;5045981;28;42868;-83
2023/12/01 12:06:48;;;;;;;;;;;15.50;53.50;;;;;;5027557;28;43052;-87
2023/12/01 12:09:20;;;;;;;;;;;15.60;54.00;;;;;;5045513;28;43045;-88
2023/12/01 12:11:46;;;;;;;;;;;15.40;52.10;;;;;;5045533;28;43012;-80
2023/12/01 12:14:12;;;;;;;;;;;15.60;53.70;;;;;;5045496;28;43073;-82
2023/12/01 12:16:38;;;;;;;;;;;15.50;53.60;;;;;;5045177;28;42934;-85
2023/12/01 12:19:03;;;;;;;;;;;15.50;53.60;;;;;;5044894;28;43003;-86
2023/12/01 12:21:29;;;;;;;;;;;15.40;53.60;;;;;;5045687;28;42876;-86
2023/12/01 12:23:55;;;;;;;;;;;15.60;53.70;;;;;;5046190;28;42968;-88
2023/12/01 12:26:23;;;;;;;;;;;15.50;53.80;;;;;;5045603;28;42967;-80
2023/12/01 12:28:54;;;;;;;;;;;15.50;53.70;;;;;;5045434;28;42867;-87
2023/12/01 12:31:20;;;;;;;;;;;15.60;53.70;;;;;;5045630;28;43513;-84
2023/12/01 12:33:49;;;;;;;;;;;15.60;53.50;;;;;;5045837;28;42863;-82
2023/12/01 12:36:15;;;;;;;;;;;15.40;52.70;;;;;;5046041;28;43295;-79
2023/12/01 12:38:40;;;;;;;;;;;15.60;53.70;;;;;;5045146;28;42923;-86
2023/12/01 12:41:24;;;;;;;;;;;15.40;53.60;;;;;;5044884;28;43439;-80
2023/12/01 12:43:51;;;;;;;;;;;15.60;53.70;;;;;;5045124;28;42757;-88
2023/12/01 12:46:17;;;;;;;;;;;15.60;53.70;;;;;;5044962;28;43594;-88
2023/12/01 12:48:43;;;;;;;;;;;15.60;53.60;;;;;;5045499;28;42959;-81
2023/12/01 12:51:10;;;;;;;;;;;15.40;54.00;;;;;;5027273;28;44601;-83
2023/12/01 12:53:36;;;;;;;;;;;15.40;53.70;;;;;;5045514;28;42840;-81
2023/12/01 12:56:10;;;;;;;;;;;15.40;54.20;;;;;;5046052;28;43630;-84
2023/12/01 12:58:35;;;;;;;;;;;15.40;53.90;;;;;;5053938;28;43525;-86
2023/12/01 13:01:01;;;;;;;;;;;15.60;54.00;;;;;;5045065;28;43022;-86
2023/12/01 13:03:27;;;;;;;;;;;15.50;54.30;;;;;;5026650;28;42897;-83
2023/12/01 13:05:53;;;;;;;;;;;15.50;53.80;;;;;;5044905;28;42965;-86
2023/12/01 13:08:18;;;;;;;;;;;15.50;53.90;;;;;;5045074;28;42890;-84
2023/12/01 13:10:44;;;;;;;;;;;15.60;54.00;;;;;;5045186;28;43040;-81
2023/12/01 13:13:09;;;;;;;;;;;15.40;53.90;;;;;;5045041;28;42956;-81
2023/12/01 13:15:35;;;;;;;;;;;15.40;53.90;;;;;;5044833;28;43530;-86
2023/12/01 13:18:01;;;;;;;;;;;15.60;54.10;;;;;;5044572;28;42939;-79
2023/12/01 13:20:27;;;;;;;;;;;15.50;54.00;;;;;;5026593;28;45300;-84
2023/12/01 13:22:52;;;;;;;;;;;15.60;54.40;;;;;;5045258;28;42938;-80
2023/12/01 13:25:18;;;;;;;;;;;15.50;53.80;;;;;;5039027;28;43695;-84
2023/12/01 13:27:44;;;;;;;;;;;15.60;54.00;;;;;;5009953;28;43073;-82
2023/12/01 13:30:09;;;;;;;;;;;15.50;53.90;;;;;;4994175;28;43765;-81
2023/12/01 13:32:35;;;;;;;;;;;15.50;53.80;;;;;;4967356;28;43721;-84
2023/12/01 13:35:01;;;;;;;;;;;15.50;53.80;;;;;;4998434;28;42866;-80
2023/12/01 13:37:26;;;;;;;;;;;15.40;53.90;;;;;;4988081;28;42961;-81
2023/12/01 13:39:52;;;;;;;;;;;15.50;54.00;;;;;;4993382;28;42987;-82
2023/12/01 13:42:17;;;;;;;;;;;15.50;54.00;;;;;;4993786;28;43019;-81
2023/12/01 13:44:43;;;;;;;;;;;15.70;54.00;;;;;;4993330;28;43050;-80
2023/12/01 13:47:08;;;;;;;;;;;15.50;53.90;;;;;;4995039;28;42898;-83
2023/12/01 13:49:34;;;;;;;;;;;15.40;54.40;;;;;;4992788;28;42878;-81
2023/12/01 13:52:01;;;;;;;;;;;15.50;53.90;;;;;;4975962;28;43083;-79
2023/12/01 13:54:27;;;;;;;;;;;15.40;53.90;;;;;;4995273;28;43327;-80
2023/12/01 13:56:53;;;;;;;;;;;15.40;54.60;;;;;;4999926;28;43426;-80
2023/12/01 13:59:18;;;;;;;;;;;15.60;54.50;;;;;;5004412;28;43619;-81
2023/12/01 14:01:44;;;;;;;;;;;15.40;54.30;;;;;;5006059;28;42960;-80
2023/12/01 14:04:09;;;;;;;;;;;15.60;54.20;;;;;;4988166;28;44760;-80
2023/12/01 14:06:35;;;;;;;;;;;15.70;54.20;;;;;;4988341;28;43065;-82
2023/12/01 14:09:00;;;;;;;;;;;15.50;54.10;;;;;;5007343;28;43418;-80
2023/12/01 14:11:26;;;;;;;;;;;15.40;54.10;;;;;;5006937;28;43056;-81
2023/12/01 14:13:51;;;;;;;;;;;15.60;54.10;;;;;;5004046;28;43089;-81
2023/12/01 14:16:17;;;;;;;;;;;13.50;53.60;;;;;;4982333;28;43018;-87
2023/12/01 14:18:42;;;;;;;;;;;15.50;54.10;;;;;;5000953;28;43423;-80